Accueil
METAR-TAF:

METAR-TAF

Aéroports :

Aéroport de Lahr

Lahr, Allemagne

latitude: 48-22-09N, longitude: 007-49-40E, altitude: 156 m

Observation

Le bulletin a été fait il y a 5 heures et 7 minutes, à 22:50 UTC
Vent 4 kt de ouest/sud-ouest
Température 10°C
Humidité 82%
Pression 1026 hPa
Visibilité 10 km ou plus
pas de nuages en-dessous de 1500 mètres et pas de cumulonimbus.

METAR: EDTL 222250Z 25004KT CAVOK 10/07 Q1026

Heure: 05:57 (03:57 UTC)

Prévision

Le bulletin a été fait il y a 10 heures et 57 minutes, à 17:00 UTC
Prévision valable du 22 à 18 UTC au 22 à 24 UTC
Vent 8 kt de nord/nord-ouest
Visibilité 10 km ou plus
pas de nuages en-dessous de 1500 mètres et pas de cumulonimbus.
Evoluant progressivement
du 22 à 18 UTC au 22 à 20 UTC
Vent 3 kt de nord/nord-est

TAF: EDTL 221700Z 2218/2224 33008KT CAVOK BECMG 2218/2220 03003KT

Observations et prévisions météorologiques de plus de 4000 aéroports (messages METAR et TAF).

Les stations disponibles sont représentées par des disques jaunes et rouges sur la carte.

Passer la souris dessus pour voir le nom de la station.

Cliquer dessus pour voir les observations et prévisions météorologiques.

Pour changer de carte: cliquez sur les boutons verts avec une croix noire pour zoomer, sur le bouton vert avec un tiret pour effectuer un zoom arrière, ou sur les flèches vertes pour les cartes adjacentes.


METAR-TAF: